Terminal Aerodrome Forecast
Issued by NWS

Home | Current Version | Previous Version | Text Only | Print | Product List | Glossary On
Versions: 1 2 3 4 5 6 7 8 9 10 11 12 13
000
FTUS45 KABQ 012343
TAFAEG
TAF
KAEG 012343Z 0200/0224 VRB06KT P6SM SCT100 SCT200
      TEMPO 0201/0204 VRB15G30KT 6SM -TSRA BKN080CB
     FM020400 13009KT P6SM VCSH BKN100
     FM020700 11008KT P6SM BKN100
     FM021800 VRB06KT P6SM FEW100
     FM022200 26011KT P6SM VCSH SCT100 SCT150=

USA.gov is the U.S. government's official web portal to all federal, state and local government web resources and services.